Time;durP1;ratioP1;P1;durP2;ratioP2;P2;SDS_P1;SDS_P2;PMS_P1;PMS_P2;Temp;Humidity;BMP_temperature;BMP_pressure;BME280_temperature;BME280_humidity;BME280_pressure;Samples;Min_cycle;Max_cycle;Signal;HPM_P1;HPM_P2
2022/06/05 00:00:26;;;;;;;9.50;6.07;;;16.60;99.90;;;;;;5058307;28;20423;-80
2022/06/05 00:03:32;;;;;;;17.60;7.33;;;16.50;99.90;;;;;;5058068;28;20198;-80
2022/06/05 00:06:26;;;;;;;12.60;6.43;;;16.50;99.90;;;;;;5029899;28;20431;-80
2022/06/05 00:08:55;;;;;;;10.13;6.20;;;16.50;99.90;;;;;;5057903;28;20412;-80
2022/06/05 00:11:22;;;;;;;9.93;5.57;;;16.40;99.90;;;;;;5058304;28;20569;-80
2022/06/05 00:13:52;;;;;;;8.23;5.30;;;16.40;99.90;;;;;;5057717;28;20463;-80
2022/06/05 00:16:27;;;;;;;11.23;6.50;;;16.30;99.90;;;;;;5058264;28;20519;-80
2022/06/05 00:18:53;;;;;;;11.00;6.07;;;16.30;99.90;;;;;;5057974;28;20499;-81
2022/06/05 00:21:19;;;;;;;12.90;7.13;;;16.20;99.90;;;;;;5054423;28;20439;-80
2022/06/05 00:23:46;;;;;;;10.47;6.80;;;16.20;99.90;;;;;;5054835;28;20726;-80
2022/06/05 00:26:36;;;;;;;15.07;6.00;;;16.20;99.90;;;;;;5041233;28;20436;-80
2022/06/05 00:29:22;;;;;;;11.07;6.50;;;16.10;99.90;;;;;;5043861;28;20503;-80
2022/06/05 00:32:03;;;;;;;11.07;6.30;;;16.10;99.90;;;;;;5049599;28;20416;-80
2022/06/05 00:34:29;;;;;;;12.17;6.80;;;16.10;99.90;;;;;;5052293;28;20543;-80
2022/06/05 00:36:57;;;;;;;12.37;6.97;;;16.10;99.90;;;;;;5054219;28;20511;-80
2022/06/05 00:39:35;;;;;;;9.13;5.70;;;16.10;99.90;;;;;;5054880;28;20184;-80
2022/06/05 00:42:07;;;;;;;21.00;6.43;;;16.00;99.90;;;;;;5054039;28;20502;-80
2022/06/05 00:44:41;;;;;;;10.37;6.17;;;16.00;99.90;;;;;;5054571;28;20515;-81
2022/06/05 00:47:09;;;;;;;10.03;6.27;;;16.00;99.90;;;;;;5054109;28;20424;-80
2022/06/05 00:49:59;;;;;;;12.10;6.47;;;16.00;99.90;;;;;;5054644;28;20424;-80
2022/06/05 00:52:28;;;;;;;13.87;6.60;;;16.00;99.90;;;;;;5054129;28;20424;-80
2022/06/05 00:54:54;;;;;;;9.83;6.33;;;15.90;99.90;;;;;;5053016;28;20456;-80
2022/06/05 00:57:21;;;;;;;11.83;6.53;;;15.90;99.90;;;;;;5045177;28;20478;-80
2022/06/05 00:59:48;;;;;;;12.00;7.23;;;15.80;99.90;;;;;;5054460;28;20418;-80
2022/06/05 01:02:14;;;;;;;12.37;7.00;;;15.90;99.90;;;;;;5047304;28;20515;-78
2022/06/05 01:04:47;;;;;;;12.07;7.50;;;15.80;99.90;;;;;;5046448;28;20456;-80
2022/06/05 01:07:14;;;;;;;9.60;5.63;;;15.80;99.90;;;;;;5053527;28;20440;-80
2022/06/05 01:09:41;;;;;;;13.43;6.27;;;15.80;99.90;;;;;;5054068;28;20428;-80
2022/06/05 01:12:30;;;;;;;11.43;6.00;;;15.90;99.90;;;;;;5053786;28;20424;-80
2022/06/05 01:15:32;;;;;;;8.33;4.90;;;15.90;99.90;;;;;;5033959;28;20465;-81
2022/06/05 01:18:22;;;;;;;11.20;6.40;;;15.80;99.90;;;;;;5051983;28;20489;-80
2022/06/05 01:21:22;;;;;;;14.43;6.13;;;15.80;99.90;;;;;;5051215;28;20439;-80
2022/06/05 01:24:17;;;;;;;10.83;5.70;;;15.80;99.90;;;;;;5039859;28;20908;-80
2022/06/05 01:26:52;;;;;;;9.83;6.27;;;15.80;99.90;;;;;;5044598;28;20432;-80
2022/06/05 01:29:43;;;;;;;13.70;7.87;;;15.80;99.90;;;;;;5053211;28;20467;-80
2022/06/05 01:32:23;;;;;;;10.50;6.50;;;15.90;99.90;;;;;;5009828;28;20507;-80
2022/06/05 01:34:59;;;;;;;13.53;8.10;;;15.90;99.90;;;;;;5039788;28;20861;-80
2022/06/05 01:37:39;;;;;;;12.40;7.47;;;15.90;99.90;;;;;;5039517;28;20453;-82
2022/06/05 01:40:12;;;;;;;9.93;6.83;;;16.00;99.90;;;;;;5053398;28;20903;-80
2022/06/05 01:42:49;;;;;;;11.53;6.13;;;16.00;99.90;;;;;;5052836;28;20428;-80
2022/06/05 01:45:47;;;;;;;9.30;5.80;;;16.00;99.90;;;;;;5052970;28;20759;-80
2022/06/05 01:48:20;;;;;;;10.27;5.80;;;16.00;99.90;;;;;;5027148;28;20471;-81
2022/06/05 01:50:50;;;;;;;8.20;5.03;;;16.10;99.90;;;;;;5035559;28;20842;-80
2022/06/05 01:53:19;;;;;;;8.30;5.43;;;16.10;99.90;;;;;;5044600;28;20420;-81
2022/06/05 01:56:07;;;;;;;8.00;5.20;;;16.20;99.90;;;;;;5035589;28;20468;-80
2022/06/05 01:58:41;;;;;;;9.30;5.80;;;16.20;99.90;;;;;;5040358;28;20424;-80
2022/06/05 02:01:12;;;;;;;10.13;6.07;;;16.20;99.90;;;;;;5052923;28;20933;-81
2022/06/05 02:03:42;;;;;;;8.80;5.67;;;16.20;99.90;;;;;;5052713;28;20433;-80
2022/06/05 02:06:12;;;;;;;8.13;5.73;;;16.20;99.90;;;;;;5052806;28;20481;-80
2022/06/05 02:08:54;;;;;;;9.97;6.60;;;16.20;99.90;;;;;;5052614;28;20990;-80
2022/06/05 02:11:25;;;;;;;17.77;7.50;;;16.20;99.90;;;;;;5052300;28;20507;-80
2022/06/05 02:14:00;;;;;;;27.97;6.57;;;16.20;99.90;;;;;;5039622;28;20511;-80
2022/06/05 02:16:28;;;;;;;11.43;6.50;;;16.20;99.90;;;;;;5052786;28;20511;-80
2022/06/05 02:18:54;;;;;;;10.40;6.10;;;16.30;99.90;;;;;;5052494;28;20412;-80
2022/06/05 02:21:20;;;;;;;8.17;5.60;;;16.30;99.90;;;;;;5052686;28;20470;-81
2022/06/05 02:23:46;;;;;;;11.80;6.57;;;16.40;99.90;;;;;;5052374;28;20217;-80
2022/06/05 02:26:12;;;;;;;12.93;6.23;;;16.60;99.90;;;;;;5052566;28;20185;-80
2022/06/05 02:28:38;;;;;;;8.27;4.90;;;16.70;99.90;;;;;;5052457;28;20265;-81
2022/06/05 02:31:49;;;;;;;9.33;6.00;;;16.70;99.90;;;;;;5052419;28;20261;-80
2022/06/05 02:34:31;;;;;;;14.60;6.13;;;16.80;99.90;;;;;;5005944;28;20731;-80
2022/06/05 02:37:00;;;;;;;23.20;7.10;;;16.80;99.90;;;;;;5051890;28;21073;-80
2022/06/05 02:39:35;;;;;;;10.37;6.70;;;16.80;99.90;;;;;;5051901;28;20802;-80
2022/06/05 02:42:25;;;;;;;8.67;4.77;;;16.80;99.90;;;;;;5052062;28;20430;-79
2022/06/05 02:44:56;;;;;;;11.10;6.33;;;16.80;99.90;;;;;;5051722;28;20883;-80
2022/06/05 02:47:47;;;;;;;9.90;5.83;;;16.80;99.90;;;;;;5052223;28;20446;-80
2022/06/05 02:50:22;;;;;;;10.23;6.10;;;16.80;99.90;;;;;;5043916;28;20506;-80
2022/06/05 02:52:50;;;;;;;10.60;6.83;;;16.80;99.90;;;;;;5051845;28;20443;-80
2022/06/05 02:55:18;;;;;;;9.03;6.20;;;16.80;99.90;;;;;;5047814;28;20563;-80
2022/06/05 02:57:45;;;;;;;12.90;7.17;;;16.80;99.90;;;;;;5043670;28;20427;-80
2022/06/05 03:00:14;;;;;;;12.03;6.37;;;16.80;99.90;;;;;;5051978;28;20439;-80
2022/06/05 03:05:24;;;;;;;10.00;4.93;;;16.70;99.90;;;;;;5051808;28;20481;-80
2022/06/05 03:07:50;;;;;;;10.47;6.50;;;16.70;99.90;;;;;;5051272;28;20435;-80
2022/06/05 03:10:16;;;;;;;13.97;7.10;;;16.70;99.90;;;;;;5051589;28;20718;-80
2022/06/05 03:12:42;;;;;;;10.53;5.83;;;16.70;99.90;;;;;;5051775;28;20535;-80
2022/06/05 03:15:08;;;;;;;10.17;5.90;;;16.70;99.90;;;;;;5051892;28;20463;-80
2022/06/05 03:17:34;;;;;;;11.60;6.30;;;16.70;99.90;;;;;;5051956;28;20196;-80
2022/06/05 03:20:00;;;;;;;11.63;5.83;;;16.70;99.90;;;;;;5051739;28;20424;-80
2022/06/05 03:22:27;;;;;;;12.17;5.20;;;16.70;99.90;;;;;;5050707;28;20428;-80
2022/06/05 03:24:53;;;;;;;14.93;6.20;;;16.70;99.90;;;;;;5050821;28;20193;-79
2022/06/05 03:27:19;;;;;;;10.30;6.17;;;16.70;99.90;;;;;;5047413;28;20486;-80
2022/06/05 03:29:45;;;;;;;9.47;5.90;;;16.70;99.90;;;;;;5041044;28;20646;-80
2022/06/05 03:32:11;;;;;;;13.10;6.00;;;16.80;99.90;;;;;;5050290;28;20530;-80
2022/06/05 03:34:37;;;;;;;12.17;6.40;;;16.80;99.90;;;;;;5051718;28;20471;-80
2022/06/05 03:37:04;;;;;;;10.67;6.10;;;16.80;99.90;;;;;;5051507;28;20881;-80
2022/06/05 03:39:31;;;;;;;12.73;6.17;;;16.80;99.90;;;;;;5051654;28;20209;-81
2022/06/05 03:41:57;;;;;;;7.97;5.17;;;16.80;99.90;;;;;;5056486;28;20478;-80
2022/06/05 03:44:22;;;;;;;11.03;6.53;;;16.80;99.90;;;;;;5038704;28;20432;-80
2022/06/05 03:46:48;;;;;;;10.43;6.50;;;16.80;99.90;;;;;;5051691;28;20280;-81
2022/06/05 03:49:14;;;;;;;10.00;5.30;;;16.80;99.90;;;;;;5051758;28;20190;-81
2022/06/05 03:51:40;;;;;;;12.10;6.33;;;16.90;99.90;;;;;;5051811;28;20909;-81
2022/06/05 03:54:05;;;;;;;9.97;6.37;;;16.90;99.90;;;;;;5045656;28;20829;-81
2022/06/05 03:56:31;;;;;;;10.00;5.90;;;16.90;99.90;;;;;;5045798;28;20234;-80
2022/06/05 03:58:58;;;;;;;13.00;6.60;;;16.90;99.90;;;;;;5055402;28;20192;-80
2022/06/05 04:01:25;;;;;;;9.20;6.10;;;17.00;99.90;;;;;;5054839;28;20182;-79
2022/06/05 04:03:52;;;;;;;12.10;5.63;;;17.00;99.90;;;;;;5055184;28;20930;-79
2022/06/05 04:06:21;;;;;;;9.23;5.90;;;17.00;99.90;;;;;;5054707;28;20933;-80
2022/06/05 04:08:48;;;;;;;12.33;6.27;;;16.90;99.90;;;;;;5055107;28;20507;-80
2022/06/05 04:11:18;;;;;;;12.30;5.80;;;17.00;99.90;;;;;;5043460;28;20875;-81
2022/06/05 04:13:44;;;;;;;7.30;4.93;;;17.00;99.90;;;;;;5054115;28;20416;-81
2022/06/05 04:16:15;;;;;;;10.20;6.03;;;17.00;99.90;;;;;;5055209;28;21230;-81
2022/06/05 04:18:41;;;;;;;8.33;5.33;;;17.00;99.90;;;;;;5054460;28;20277;-81
2022/06/05 04:21:08;;;;;;;13.50;6.70;;;17.00;99.90;;;;;;5054788;28;20503;-81
2022/06/05 04:23:34;;;;;;;13.37;6.60;;;16.90;99.90;;;;;;5055001;28;20174;-81
2022/06/05 04:26:00;;;;;;;11.10;6.83;;;16.90;99.90;;;;;;5055140;28;20428;-81
2022/06/05 04:28:25;;;;;;;12.20;6.80;;;16.90;99.90;;;;;;5055101;28;20189;-80
2022/06/05 04:30:51;;;;;;;10.53;6.47;;;16.80;99.90;;;;;;5054796;28;20428;-81
2022/06/05 04:33:17;;;;;;;10.23;6.10;;;16.80;99.90;;;;;;5054622;28;20190;-81
2022/06/05 04:35:43;;;;;;;14.93;6.13;;;16.80;99.90;;;;;;5054575;28;20206;-81
2022/06/05 04:38:09;;;;;;;10.30;6.73;;;16.80;99.90;;;;;;5054457;28;20408;-80
2022/06/05 04:40:34;;;;;;;8.50;6.17;;;16.90;99.90;;;;;;5054247;28;20913;-81
2022/06/05 04:43:00;;;;;;;12.47;6.70;;;16.90;99.90;;;;;;5054032;28;20660;-81
2022/06/05 04:45:25;;;;;;;16.30;7.13;;;16.90;99.90;;;;;;5054405;28;20181;-81
2022/06/05 04:47:51;;;;;;;12.00;7.30;;;16.80;99.90;;;;;;5054399;28;20302;-81
2022/06/05 04:50:17;;;;;;;10.83;7.00;;;16.80;99.90;;;;;;5052118;28;20208;-82
2022/06/05 04:52:42;;;;;;;11.80;7.00;;;16.70;99.90;;;;;;5062160;28;20212;-82
2022/06/05 04:55:08;;;;;;;16.23;7.90;;;16.70;99.90;;;;;;5061723;28;20208;-82
2022/06/05 04:57:36;;;;;;;13.53;8.63;;;16.60;99.90;;;;;;5064183;28;20177;-81
2022/06/05 05:00:04;;;;;;;21.00;9.83;;;16.50;99.90;;;;;;5054228;28;20255;-81
2022/06/05 05:02:30;;;;;;;19.90;10.10;;;16.50;99.90;;;;;;5053747;28;20425;-81
2022/06/05 05:04:56;;;;;;;21.23;10.10;;;16.40;99.90;;;;;;5053957;28;20462;-80
2022/06/05 05:07:22;;;;;;;21.00;10.27;;;16.40;99.90;;;;;;5047008;28;20287;-80
2022/06/05 05:09:48;;;;;;;18.77;10.50;;;16.30;99.90;;;;;;5052241;28;20919;-79
2022/06/05 05:12:15;;;;;;;18.50;10.37;;;16.30;99.90;;;;;;5061400;28;20182;-79
2022/06/05 05:14:41;;;;;;;24.97;12.40;;;16.30;99.90;;;;;;5053453;28;20285;-79
2022/06/05 05:17:07;;;;;;;22.77;11.43;;;16.30;99.90;;;;;;5053136;28;20456;-79
2022/06/05 05:19:33;;;;;;;18.10;11.07;;;16.20;99.90;;;;;;5044716;28;20182;-79
2022/06/05 05:21:59;;;;;;;17.90;12.03;;;16.20;99.90;;;;;;5059461;28;20259;-80
2022/06/05 05:24:25;;;;;;;18.93;10.70;;;16.20;99.90;;;;;;5053299;28;20873;-80
2022/06/05 05:26:50;;;;;;;17.60;11.33;;;16.20;99.90;;;;;;5053049;28;20912;-80
2022/06/05 05:29:16;;;;;;;21.10;11.50;;;16.20;99.90;;;;;;5047903;28;20178;-80
2022/06/05 05:31:44;;;;;;;21.20;11.37;;;16.20;99.90;;;;;;5045249;28;20178;-79
2022/06/05 05:34:11;;;;;;;24.90;11.30;;;16.20;99.90;;;;;;5052826;28;20284;-80
2022/06/05 05:36:37;;;;;;;20.10;10.97;;;16.20;99.90;;;;;;5052585;28;20429;-81
2022/06/05 05:42:06;;;;;;;20.33;11.53;;;16.20;99.90;;;;;;5039012;28;20416;-81
2022/06/05 05:44:37;;;;;;;15.57;10.57;;;16.20;99.90;;;;;;5034187;28;20456;-81
2022/06/05 05:47:06;;;;;;;20.63;10.77;;;16.10;99.90;;;;;;5048195;28;20455;-80
2022/06/05 05:49:31;;;;;;;22.57;9.97;;;16.10;99.90;;;;;;5052332;28;20484;-80
2022/06/05 05:51:57;;;;;;;17.00;8.67;;;16.10;99.90;;;;;;5052543;28;20429;-80
2022/06/05 05:54:23;;;;;;;14.60;9.40;;;16.00;99.90;;;;;;5051035;28;20229;-80
2022/06/05 05:56:49;;;;;;;19.47;9.40;;;16.00;99.90;;;;;;5045860;28;20186;-80
2022/06/05 05:59:15;;;;;;;13.90;8.37;;;16.00;99.90;;;;;;5043335;28;20180;-81
2022/06/05 06:01:41;;;;;;;14.67;7.80;;;15.90;99.90;;;;;;5041400;28;20170;-81
2022/06/05 06:04:06;;;;;;;11.53;8.20;;;16.00;99.90;;;;;;5052416;28;20439;-80
2022/06/05 06:06:35;;;;;;;14.97;8.17;;;16.00;99.90;;;;;;5052778;28;20181;-81
2022/06/05 06:09:00;;;;;;;8.07;4.80;;;16.00;99.90;;;;;;5052399;28;20192;-80
2022/06/05 06:11:27;;;;;;;7.30;4.30;;;16.10;99.90;;;;;;5052200;28;20428;-81
2022/06/05 06:13:53;;;;;;;9.63;5.83;;;16.20;99.90;;;;;;5050019;28;20916;-81
2022/06/05 06:16:19;;;;;;;9.50;5.20;;;16.20;99.90;;;;;;5052761;28;20424;-82
2022/06/05 06:18:44;;;;;;;10.83;4.50;;;16.30;99.90;;;;;;5051868;28;20181;-82
2022/06/05 06:21:11;;;;;;;6.83;3.40;;;16.30;99.90;;;;;;5034776;28;20184;-81
2022/06/05 06:23:36;;;;;;;6.13;3.60;;;16.30;99.90;;;;;;5051509;28;20178;-81
2022/06/05 06:26:06;;;;;;;5.93;2.90;;;16.30;99.90;;;;;;5052347;28;20797;-82
2022/06/05 06:28:32;;;;;;;7.47;3.13;;;16.30;99.90;;;;;;5052662;28;20205;-82
2022/06/05 06:30:58;;;;;;;7.53;3.30;;;16.20;99.90;;;;;;5052742;28;20420;-82
2022/06/05 06:33:23;;;;;;;5.97;3.43;;;16.20;99.90;;;;;;5050969;28;20485;-82
2022/06/05 06:35:49;;;;;;;5.03;3.73;;;16.20;99.90;;;;;;5048649;28;20486;-82
2022/06/05 06:38:15;;;;;;;6.40;3.90;;;16.20;99.90;;;;;;5051917;28;20257;-82
2022/06/05 06:40:40;;;;;;;7.30;3.23;;;16.20;99.90;;;;;;5041139;28;20178;-83
2022/06/05 06:43:06;;;;;;;6.03;2.90;;;16.20;99.90;;;;;;5048625;28;22106;-83
2022/06/05 06:45:32;;;;;;;6.60;3.60;;;16.20;99.90;;;;;;5052326;28;20200;-82
2022/06/05 06:47:58;;;;;;;6.07;3.63;;;16.10;99.90;;;;;;5051949;28;20634;-83
2022/06/05 06:50:24;;;;;;;5.90;3.30;;;16.10;99.90;;;;;;5042877;28;20436;-82
2022/06/05 06:52:50;;;;;;;6.53;3.50;;;16.10;99.90;;;;;;5047370;28;20194;-82
2022/06/05 06:55:17;;;;;;;10.30;3.53;;;16.10;99.90;;;;;;5052126;28;20246;-83
2022/06/05 06:57:44;;;;;;;10.07;2.77;;;16.10;99.90;;;;;;5051966;28;20197;-82
2022/06/05 07:00:14;;;;;;;5.63;3.10;;;16.10;99.90;;;;;;5052197;28;20412;-80
2022/06/05 07:02:40;;;;;;;11.13;5.27;;;16.10;99.90;;;;;;5048005;28;20509;-81
2022/06/05 07:05:05;;;;;;;6.50;4.43;;;16.10;99.90;;;;;;5051735;28;20436;-81
2022/06/05 07:07:31;;;;;;;9.13;4.80;;;16.00;99.90;;;;;;5051783;28;20186;-81
2022/06/05 07:09:56;;;;;;;7.17;4.13;;;16.00;99.90;;;;;;5052307;28;20188;-81
2022/06/05 07:12:22;;;;;;;10.63;4.30;;;16.00;99.90;;;;;;5047850;28;20182;-81
2022/06/05 07:14:48;;;;;;;6.20;4.13;;;16.00;99.90;;;;;;5052038;28;20233;-80
2022/06/05 07:17:13;;;;;;;8.33;2.87;;;16.00;99.90;;;;;;5052031;28;20185;-81
2022/06/05 07:19:39;;;;;;;4.27;3.07;;;16.00;99.90;;;;;;5045033;28;20642;-81
2022/06/05 07:22:05;;;;;;;13.30;2.97;;;15.90;99.90;;;;;;5045848;28;20212;-81
2022/06/05 07:24:30;;;;;;;5.63;3.17;;;15.90;99.90;;;;;;5051387;28;20194;-82
2022/06/05 07:26:56;;;;;;;8.03;2.43;;;15.90;99.90;;;;;;5051954;28;20642;-81
2022/06/05 07:29:22;;;;;;;7.67;2.83;;;15.90;99.90;;;;;;5052054;28;20178;-82
2022/06/05 07:31:47;;;;;;;5.27;2.73;;;15.90;99.90;;;;;;5055907;28;20202;-82
2022/06/05 07:34:14;;;;;;;5.80;3.70;;;15.90;99.90;;;;;;5045024;28;20256;-82
2022/06/05 07:36:40;;;;;;;7.53;3.57;;;15.90;99.90;;;;;;5053562;28;20336;-81
2022/06/05 07:39:05;;;;;;;5.40;3.50;;;16.00;99.90;;;;;;5055993;28;20919;-82
2022/06/05 07:41:34;;;;;;;3.47;2.57;;;16.00;99.90;;;;;;5055777;28;20624;-81
2022/06/05 07:44:00;;;;;;;4.77;3.13;;;16.10;99.90;;;;;;5055663;28;20185;-81
2022/06/05 07:46:27;;;;;;;4.10;2.43;;;16.10;99.90;;;;;;5055927;28;20444;-81
2022/06/05 07:48:53;;;;;;;4.73;3.30;;;16.20;99.90;;;;;;5056611;28;20819;-81
2022/06/05 07:54:27;;;;;;;3.53;2.30;;;16.40;99.90;;;;;;5043293;28;20852;-82
2022/06/05 07:57:13;;;;;;;4.70;2.43;;;16.50;99.90;;;;;;5039726;28;20868;-82
2022/06/05 07:59:42;;;;;;;5.50;3.23;;;16.50;99.90;;;;;;5033294;28;20483;-82
2022/06/05 08:02:11;;;;;;;2.87;1.77;;;16.60;99.90;;;;;;5038102;28;20434;-81
2022/06/05 08:04:37;;;;;;;11.13;2.30;;;16.70;99.90;;;;;;5033184;28;20456;-82
2022/06/05 08:07:05;;;;;;;5.00;1.87;;;16.80;99.90;;;;;;5054965;28;20430;-81
2022/06/05 08:09:32;;;;;;;6.10;2.43;;;17.00;99.90;;;;;;5042197;28;20464;-81
2022/06/05 08:12:00;;;;;;;5.93;2.57;;;17.10;99.90;;;;;;5031004;28;20761;-81
2022/06/05 08:14:26;;;;;;;11.33;2.53;;;17.40;99.90;;;;;;5047826;28;20485;-81
2022/06/05 08:16:52;;;;;;;6.80;1.93;;;17.60;99.90;;;;;;5055030;28;20439;-81
2022/06/05 08:19:21;;;;;;;3.57;1.80;;;17.90;99.90;;;;;;5055279;28;20784;-82
2022/06/05 08:21:47;;;;;;;3.17;1.70;;;18.00;99.90;;;;;;5054839;28;20189;-82
2022/06/05 08:24:14;;;;;;;4.97;2.20;;;18.40;99.90;;;;;;5055054;28;20417;-82
2022/06/05 08:26:39;;;;;;;5.60;2.10;;;18.80;99.90;;;;;;5055056;28;20424;-82
2022/06/05 08:29:06;;;;;;;6.40;2.83;;;19.30;99.90;;;;;;5042165;28;20428;-83
2022/06/05 08:31:32;;;;;;;7.30;2.43;;;19.70;99.90;;;;;;5053432;28;20594;-83
2022/06/05 08:33:59;;;;;;;4.73;1.80;;;20.10;99.90;;;;;;5054433;28;20435;-82
2022/06/05 08:36:25;;;;;;;5.67;2.60;;;20.60;99.90;;;;;;5055231;28;20424;-86
2022/06/05 08:41:47;;;;;;;14.10;2.07;;;21.20;99.90;;;;;;5042417;28;20398;-86
2022/06/05 08:44:49;;;;;;;7.47;2.00;;;21.90;99.90;;;;;;5048762;28;21170;-86
2022/06/05 08:47:25;;;;;;;3.80;1.97;;;22.20;99.90;;;;;;5049964;28;21015;-85
2022/06/05 08:50:06;;;;;;;6.20;2.30;;;22.50;99.90;;;;;;5055386;28;20494;-86
2022/06/05 08:52:37;;;;;;;3.37;1.97;;;22.80;99.90;;;;;;5061989;28;20694;-85
2022/06/05 08:55:15;;;;;;;3.67;1.93;;;22.90;99.90;;;;;;5064981;28;20462;-85
2022/06/05 08:57:40;;;;;;;4.10;1.87;;;22.70;99.90;;;;;;5042714;28;20482;-84
2022/06/05 09:00:32;;;;;;;3.17;2.10;;;22.40;99.90;;;;;;5053697;28;20465;-85
2022/06/05 09:03:04;;;;;;;3.80;1.60;;;22.20;99.90;;;;;;5053003;28;20657;-85
2022/06/05 09:05:43;;;;;;;2.47;1.60;;;22.10;99.90;;;;;;5053330;28;20419;-85
2022/06/05 09:08:15;;;;;;;6.33;2.10;;;22.00;99.90;;;;;;5055406;28;20407;-85
2022/06/05 09:10:45;;;;;;;2.10;1.13;;;22.00;99.90;;;;;;5054812;28;20412;-86
2022/06/05 09:13:14;;;;;;;4.80;1.70;;;21.80;99.90;;;;;;5054559;28;20415;-85
2022/06/05 09:15:56;;;;;;;5.10;1.30;;;21.50;99.90;;;;;;5054773;28;20998;-85
2022/06/05 09:18:25;;;;;;;3.37;1.17;;;21.20;99.90;;;;;;5050252;28;20427;-84
2022/06/05 09:20:53;;;;;;;2.80;1.50;;;21.00;99.90;;;;;;5034434;28;20425;-84
2022/06/05 09:23:19;;;;;;;2.87;1.30;;;20.90;99.90;;;;;;5052129;28;20790;-86
2022/06/05 09:25:53;;;;;;;5.33;1.80;;;20.90;99.90;;;;;;5054343;28;20426;-85
2022/06/05 09:28:40;;;;;;;2.13;1.10;;;20.80;99.90;;;;;;5053420;28;20189;-85
2022/06/05 09:31:25;;;;;;;9.27;2.70;;;20.60;99.90;;;;;;5054145;28;20419;-84
2022/06/05 09:33:54;;;;;;;3.10;1.20;;;20.80;99.90;;;;;;5054221;28;20467;-85
2022/06/05 09:36:24;;;;;;;2.47;1.20;;;21.30;99.90;;;;;;5054042;28;20419;-85
2022/06/05 09:38:59;;;;;;;3.80;1.70;;;22.10;99.90;;;;;;5053765;28;21032;-85
2022/06/05 09:41:24;;;;;;;3.47;1.30;;;22.50;99.90;;;;;;5053728;28;20404;-86
2022/06/05 09:43:59;;;;;;;6.00;2.40;;;22.70;99.90;;;;;;5054072;28;20418;-84
2022/06/05 09:46:55;;;;;;;3.27;1.43;;;22.80;99.90;;;;;;5053899;28;20211;-85
2022/06/05 09:49:34;;;;;;;2.60;1.37;;;23.20;99.90;;;;;;5053421;28;20418;-84
2022/06/05 09:52:20;;;;;;;2.13;1.27;;;23.60;99.90;;;;;;5053514;28;20411;-83
2022/06/05 09:55:09;;;;;;;4.30;2.03;;;23.60;99.90;;;;;;5050975;28;20447;-84
2022/06/05 10:00:37;;;;;;;9.53;1.53;;;23.60;99.90;;;;;;5052986;28;20453;-85
2022/06/05 10:03:10;;;;;;;4.40;1.60;;;23.30;99.90;;;;;;5027977;28;20464;-82
2022/06/05 10:05:40;;;;;;;4.50;1.33;;;22.80;99.90;;;;;;5046115;28;20447;-82
2022/06/05 10:08:06;;;;;;;6.33;1.80;;;22.50;99.90;;;;;;5051674;28;20420;-82
2022/06/05 10:10:38;;;;;;;3.20;1.43;;;22.30;99.90;;;;;;5051759;28;20519;-82
2022/06/05 10:13:32;;;;;;;4.20;1.93;;;22.00;99.90;;;;;;5052019;28;20181;-82
2022/06/05 10:16:10;;;;;;;3.77;1.80;;;21.80;99.90;;;;;;5052367;28;21252;-82
2022/06/05 10:18:58;;;;;;;3.57;1.77;;;21.50;99.90;;;;;;5052229;28;20408;-82
2022/06/05 10:21:35;;;;;;;3.40;2.03;;;21.20;99.90;;;;;;5052059;28;20405;-82
2022/06/05 10:24:03;;;;;;;8.13;1.90;;;21.00;99.90;;;;;;5046099;28;20421;-84
2022/06/05 10:26:38;;;;;;;8.67;2.13;;;20.70;99.90;;;;;;5042851;28;20458;-83
2022/06/05 10:29:22;;;;;;;7.17;2.10;;;20.40;99.90;;;;;;5044211;28;20417;-80
2022/06/05 10:31:59;;;;;;;2.83;1.57;;;20.00;99.90;;;;;;5047626;28;20413;-80
2022/06/05 10:34:40;;;;;;;3.37;2.03;;;19.70;99.90;;;;;;5051369;28;21010;-82
2022/06/05 10:37:12;;;;;;;5.10;2.47;;;19.50;99.90;;;;;;5050803;28;20796;-81
2022/06/05 10:39:59;;;;;;;4.47;2.30;;;19.30;99.90;;;;;;5050918;28;20462;-82
2022/06/05 10:42:47;;;;;;;6.73;3.20;;;19.10;99.90;;;;;;5051856;28;20442;-82
2022/06/05 10:45:30;;;;;;;5.70;2.33;;;19.00;99.90;;;;;;5051892;28;20466;-81
2022/06/05 10:47:56;;;;;;;5.53;2.77;;;18.90;99.90;;;;;;5051247;28;20412;-82
2022/06/05 10:50:53;;;;;;;12.90;3.20;;;18.70;99.90;;;;;;5052185;28;20922;-82
2022/06/05 10:53:40;;;;;;;5.97;2.60;;;18.70;99.90;;;;;;5052271;28;20878;-82
2022/06/05 10:56:13;;;;;;;7.93;3.30;;;18.70;99.90;;;;;;5052686;28;20460;-82
2022/06/05 10:58:42;;;;;;;3.20;2.13;;;18.60;99.90;;;;;;5052222;28;20420;-81
2022/06/05 11:01:35;;;;;;;7.73;2.87;;;18.50;99.90;;;;;;5052505;28;20421;-81
2022/06/05 11:04:13;;;;;;;9.00;3.07;;;18.60;99.90;;;;;;5051396;28;20440;-82
2022/06/05 11:06:52;;;;;;;18.73;3.27;;;18.60;99.90;;;;;;5051361;28;20477;-81
2022/06/05 11:09:34;;;;;;;7.73;2.70;;;18.60;99.90;;;;;;5052057;28;20416;-81
2022/06/05 11:15:22;;;;;;;6.70;2.27;;;18.70;99.90;;;;;;5042990;28;20510;-81
2022/06/05 11:18:12;;;;;;;4.13;2.47;;;18.70;99.90;;;;;;5052010;28;20408;-81
2022/06/05 11:20:42;;;;;;;6.43;1.80;;;18.70;99.90;;;;;;5051884;28;20423;-81
2022/06/05 11:23:23;;;;;;;3.87;2.17;;;18.70;99.90;;;;;;5051890;28;20416;-81
2022/06/05 11:26:10;;;;;;;4.77;2.80;;;18.80;99.90;;;;;;5051975;28;20768;-81
2022/06/05 11:28:55;;;;;;;3.30;1.80;;;19.10;99.90;;;;;;5051713;28;20458;-84
2022/06/05 11:31:39;;;;;;;2.60;1.77;;;19.60;99.90;;;;;;5040299;28;20418;-84
2022/06/05 11:34:30;;;;;;;5.53;2.23;;;20.40;99.90;;;;;;5039253;28;21022;-85
2022/06/05 11:37:37;;;;;;;3.80;1.90;;;20.90;99.90;;;;;;5048387;28;20431;-82
2022/06/05 11:40:21;;;;;;;4.60;1.57;;;21.20;99.90;;;;;;5034964;28;20447;-83
2022/06/05 11:42:50;;;;;;;3.60;1.70;;;21.40;99.90;;;;;;5045648;28;20827;-82
2022/06/05 11:45:51;;;;;;;2.53;1.57;;;21.60;99.90;;;;;;5046592;28;20522;-83
2022/06/05 11:48:31;;;;;;;12.20;1.80;;;21.80;99.90;;;;;;5028045;28;20483;-83
2022/06/05 11:51:17;;;;;;;8.90;2.20;;;21.70;99.90;;;;;;5025913;28;20995;-83
2022/06/05 11:53:52;;;;;;;9.67;1.63;;;21.80;99.90;;;;;;5054109;28;20435;-83
2022/06/05 11:56:30;;;;;;;3.63;1.23;;;21.70;99.90;;;;;;5046650;28;20502;-83
2022/06/05 11:59:34;;;;;;;4.40;1.07;;;21.50;99.90;;;;;;5045112;28;20396;-83
2022/06/05 12:02:09;;;;;;;4.40;1.13;;;21.30;99.90;;;;;;5045762;28;20423;-82
2022/06/05 12:05:08;;;;;;;3.67;1.57;;;21.10;99.90;;;;;;5045552;28;20439;-80
2022/06/05 12:07:34;;;;;;;6.20;1.57;;;21.00;99.90;;;;;;5042334;28;20970;-81
2022/06/05 12:10:08;;;;;;;6.17;1.80;;;20.90;99.90;;;;;;5028128;28;20500;-80
2022/06/05 12:12:44;;;;;;;6.60;1.60;;;20.90;99.90;;;;;;5031273;28;20264;-81
2022/06/05 12:15:47;;;;;;;6.30;1.40;;;20.80;99.90;;;;;;5059386;28;20497;-80
2022/06/05 12:18:24;;;;;;;2.63;1.43;;;20.70;99.90;;;;;;5039610;28;20474;-80
2022/06/05 12:21:01;;;;;;;2.77;1.60;;;20.80;99.90;;;;;;5050817;28;20416;-81
2022/06/05 12:23:31;;;;;;;4.40;1.60;;;20.70;99.90;;;;;;5050012;28;20427;-80
2022/06/05 12:26:11;;;;;;;3.17;1.10;;;20.70;99.90;;;;;;5050181;28;20813;-80
2022/06/05 12:28:45;;;;;;;5.83;1.57;;;20.70;99.90;;;;;;5050900;28;20466;-81
2022/06/05 12:31:37;;;;;;;8.70;1.50;;;21.00;99.90;;;;;;5051188;28;20412;-80
2022/06/05 12:34:05;;;;;;;5.73;1.67;;;21.40;99.90;;;;;;5049961;28;20428;-80
2022/06/05 12:36:55;;;;;;;8.87;1.50;;;21.90;99.90;;;;;;5046930;28;20957;-80
2022/06/05 12:39:31;;;;;;;6.97;1.60;;;22.20;99.90;;;;;;5049207;28;20418;-80
2022/06/05 12:42:25;;;;;;;8.40;2.17;;;22.10;99.90;;;;;;5051848;28;20801;-81
2022/06/05 12:45:14;;;;;;;4.27;1.43;;;22.10;99.90;;;;;;5050395;28;20868;-80
2022/06/05 12:48:21;;;;;;;5.80;1.77;;;22.00;99.90;;;;;;5050440;28;20903;-80
2022/06/05 12:51:12;;;;;;;3.20;1.30;;;21.70;99.90;;;;;;5050260;28;20416;-80
2022/06/05 12:53:51;;;;;;;3.43;1.13;;;21.80;99.90;;;;;;5049794;28;20462;-80
2022/06/05 12:56:27;;;;;;;3.60;1.47;;;22.00;99.90;;;;;;5050037;28;20809;-80
2022/06/05 12:59:32;;;;;;;10.77;1.73;;;22.20;99.90;;;;;;5050275;28;20407;-80
2022/06/05 13:02:06;;;;;;;5.20;2.20;;;22.30;99.90;;;;;;5011155;28;20438;-80
2022/06/05 13:04:35;;;;;;;6.90;1.50;;;22.20;99.90;;;;;;5043309;28;20447;-81
2022/06/05 13:07:10;;;;;;;10.53;1.50;;;22.10;99.90;;;;;;5048570;28;20488;-80
2022/06/05 13:09:46;;;;;;;2.93;1.33;;;22.10;99.90;;;;;;5050509;28;20858;-81
2022/06/05 13:12:30;;;;;;;8.83;1.53;;;22.20;99.90;;;;;;5049933;28;20978;-81
2022/06/05 13:15:16;;;;;;;4.53;1.60;;;22.30;99.90;;;;;;5049946;28;20514;-81
2022/06/05 13:18:01;;;;;;;5.53;2.10;;;22.40;99.90;;;;;;5050097;28;20434;-81
2022/06/05 13:20:45;;;;;;;2.97;1.23;;;22.40;99.90;;;;;;5049696;28;20472;-81
2022/06/05 13:23:34;;;;;;;7.00;1.90;;;22.50;99.90;;;;;;5048925;28;20512;-81
2022/06/05 13:26:01;;;;;;;9.80;2.30;;;22.40;99.90;;;;;;5049302;28;20420;-81
2022/06/05 13:28:50;;;;;;;4.90;1.53;;;22.50;99.90;;;;;;5048667;28;20412;-81
2022/06/05 13:31:26;;;;;;;4.30;2.00;;;22.50;99.90;;;;;;5049649;28;20404;-80